Map

Track Data

SID SEASON NUMBER BASIN SUBBASIN NAME ISO_TIME NATURE LAT LON WMO_WIND WMO_PRES WMO_AGENCY TRACK_TYPE DIST2LAND LANDFALL IFLAG USA_AGENCY USA_ATCF_ID USA_LAT USA_LON USA_RECORD USA_STATUS USA_WIND USA_PRES USA_SSHS USA_R34_NE USA_R34_SE USA_R34_SW USA_R34_NW USA_R50_NE USA_R50_SE USA_R50_SW USA_R50_NW USA_R64_NE USA_R64_SE USA_R64_SW USA_R64_NW USA_POCI USA_ROCI USA_RMW USA_EYE TOKYO_LAT TOKYO_LON TOKYO_GRADE TOKYO_WIND TOKYO_PRES TOKYO_R50_DIR TOKYO_R50_LONG TOKYO_R50_SHORT TOKYO_R30_DIR TOKYO_R30_LONG TOKYO_R30_SHORT TOKYO_LAND CMA_LAT CMA_LON CMA_CAT CMA_WIND CMA_PRES HKO_LAT HKO_LON HKO_CAT HKO_WIND HKO_PRES NEWDELHI_LAT NEWDELHI_LON NEWDELHI_GRADE NEWDELHI_WIND NEWDELHI_PRES NEWDELHI_CI NEWDELHI_DP NEWDELHI_POCI REUNION_LAT REUNION_LON REUNION_TYPE REUNION_WIND REUNION_PRES REUNION_TNUM REUNION_CI REUNION_RMW REUNION_R34_NE REUNION_R34_SE REUNION_R34_SW REUNION_R34_NW REUNION_R50_NE REUNION_R50_SE REUNION_R50_SW REUNION_R50_NW REUNION_R64_NE REUNION_R64_SE REUNION_R64_SW REUNION_R64_NW BOM_LAT BOM_LON BOM_TYPE BOM_WIND BOM_PRES BOM_TNUM BOM_CI BOM_RMW BOM_R34_NE BOM_R34_SE BOM_R34_SW BOM_R34_NW BOM_R50_NE BOM_R50_SE BOM_R50_SW BOM_R50_NW BOM_R64_NE BOM_R64_SE BOM_R64_SW BOM_R64_NW BOM_ROCI BOM_POCI BOM_EYE BOM_POS_METHOD BOM_PRES_METHOD NADI_LAT NADI_LON NADI_CAT NADI_WIND NADI_PRES WELLINGTON_LAT WELLINGTON_LON WELLINGTON_WIND WELLINGTON_PRES DS824_LAT DS824_LON DS824_STAGE DS824_WIND DS824_PRES TD9636_LAT TD9636_LON TD9636_STAGE TD9636_WIND TD9636_PRES TD9635_LAT TD9635_LON TD9635_WIND TD9635_PRES TD9635_ROCI NEUMANN_LAT NEUMANN_LON NEUMANN_CLASS NEUMANN_WIND NEUMANN_PRES MLC_LAT MLC_LON MLC_CLASS MLC_WIND MLC_PRES USA_GUST BOM_GUST BOM_GUST_PER REUNION_GUST REUNION_GUST_PER USA_SEAHGT USA_SEARAD_NE USA_SEARAD_SE USA_SEARAD_SW USA_SEARAD_NW STORM_SPEED STORM_DIR
1892288N10092 1892 53 NI BB NOT_NAMED 1892-10-14 00:00:00 TS 9.60000 91.9000 main 577 577 _________O____ -1 9.60000 91.9000 TC 34 4 317
1892288N10092 1892 53 NI BB NOT_NAMED 1892-10-14 03:00:00 TS 9.73334 91.7750 main 592 592 _________PO___ -1 9.80000 91.7125 TC 36 9.60000 91.9000 2 5 314
1892288N10092 1892 53 NI BB NOT_NAMED 1892-10-14 06:00:00 TS 9.92637 91.5596 main 624 624 _________OP___ -1 10.0000 91.5000 TC 39 9.81592 91.6490 2 6 311
1892288N10092 1892 53 NI BB NOT_NAMED 1892-10-14 09:00:00 TS 10.1252 91.3178 main 662 662 _________PP___ -1 10.2000 91.2500 TC 42 10.0254 91.4082 2 6 310
1892288N10092 1892 53 NI BB NOT_NAMED 1892-10-14 12:00:00 TS 10.3111 91.0941 main 693 693 _________OP___ -1 10.4000 91.0000 TC 45 10.2222 91.1883 2 6 312
1892288N10092 1892 53 NI BB NOT_NAMED 1892-10-14 15:00:00 TS 10.5037 90.8962 main 704 697 _________PO___ -1 10.6075 90.7925 TC 45 10.4000 91.0000 3 5 315
1892288N10092 1892 53 NI BB NOT_NAMED 1892-10-14 18:00:00 TS 10.6787 90.7225 main 697 694 _________OP___ -1 10.8000 90.6000 TC 45 10.5574 90.8450 3 5 314
1892288N10092 1892 53 NI BB NOT_NAMED 1892-10-14 21:00:00 TS 10.8196 90.5669 main 694 690 _________PP___ -1 10.9274 90.4448 TC 45 10.7118 90.6890 3 5 310
1892288N10092 1892 53 NI BB NOT_NAMED 1892-10-15 00:00:00 TS 10.9927 90.3443 main 696 688 _________OP___ -1 11.1000 90.2000 TC 45 10.8854 90.4886 3 7 307
1892288N10092 1892 53 NI BB NOT_NAMED 1892-10-15 03:00:00 TS 11.2638 89.9763 main 692 692 _________PO___ -1 11.4276 89.7526 TC 45 11.1000 90.2000 3 10 306
1892288N10092 1892 53 NI BB NOT_NAMED 1892-10-15 06:00:00 TS 11.5972 89.4844 main 707 707 _________OP___ -1 11.8000 89.2000 TC 45 11.3944 89.7689 3 12 303
1892288N10092 1892 53 NI BB NOT_NAMED 1892-10-15 09:00:00 TS 11.9215 88.9490 main 733 726 _________PP___ -1 12.1150 88.6499 TC 45 11.7280 89.2481 3 13 301
1892288N10092 1892 53 NI BB NOT_NAMED 1892-10-15 12:00:00 TS 12.2362 88.3891 main 756 750 _________OP___ -1 12.4000 88.1000 TC 45 12.0725 88.6782 3 12 299
1892288N10092 1892 53 NI BB NOT_NAMED 1892-10-15 15:00:00 TS 12.5287 87.8499 main 749 694 _________PO___ -1 12.6573 87.5998 TC 45 12.4000 88.1000 3 12 298
1892288N10092 1892 53 NI BB NOT_NAMED 1892-10-15 18:00:00 TS 12.7834 87.3513 main 694 638 _________OP___ -1 12.9000 87.1000 TC 45 12.6668 87.6026 3 11 297
1892288N10092 1892 53 NI BB NOT_NAMED 1892-10-15 21:00:00 TS 13.0281 86.8405 main 629 566 _________PP___ -1 13.1423 86.5798 TC 45 12.9139 87.1013 3 12 295
1892288N10092 1892 53 NI BB NOT_NAMED 1892-10-16 00:00:00 TS 13.2770 86.2872 main 566 503 _________OP___ -1 13.4000 86.0000 TC 45 13.1541 86.5744 3 13 294
1892288N10092 1892 53 NI BB NOT_NAMED 1892-10-16 03:00:00 TS 13.5500 85.6613 main 503 426 _________PO___ -1 13.7000 85.3225 TC 45 13.4000 86.0000 3 14 294
1892288N10092 1892 53 NI BB NOT_NAMED 1892-10-16 06:00:00 TS 13.8440 84.9793 main 426 352 _________OP___ -1 14.0000 84.6000 TC 45 13.6880 85.3587 3 15 293
1892288N10092 1892 53 NI BB NOT_NAMED 1892-10-16 09:00:00 TS 14.1222 84.2876 main 352 282 _________PP___ -1 14.2647 83.9073 TC 45 13.9798 84.6678 3 15 291
1892288N10092 1892 53 NI BB NOT_NAMED 1892-10-16 12:00:00 TS 14.3783 83.5715 main 282 228 _________OP___ -1 14.5000 83.2000 TC 45 14.2566 83.9430 3 15 289
1892288N10092 1892 53 NI BB NOT_NAMED 1892-10-16 15:00:00 TS 14.6112 82.8287 main 223 170 _________PO___ -1 14.7223 82.4575 TC 41 14.5000 83.2000 3 15 286
1892288N10092 1892 53 NI BB NOT_NAMED 1892-10-16 18:00:00 TS 14.7839 82.1298 main 162 104 _________OP___ -1 14.9000 81.7000 TC 37 14.6968 82.4522 3 14 283
1892288N10092 1892 53 NI BB NOT_NAMED 1892-10-16 21:00:00 TS 14.9197 81.4006 main 104 68 _________PP___ -1 15.0180 80.9475 TC 33 14.8542 81.7027 3 14 280
1892288N10092 1892 53 NI BB NOT_NAMED 1892-10-17 00:00:00 TS 15.0230 80.7012 main 68 21 _________OP___ -1 15.1000 80.2000 TC 30 14.9845 80.9518 3 12 279
1892288N10092 1892 53 NI BB NOT_NAMED 1892-10-17 03:00:00 NR 15.1000 80.2000 main 21 __________O___ -1 TC 15.1000 80.2000 1 10 279

About IBTrACS Database

This database is a web-friendly format of International Best Track Archive for Climate Stewardship (IBTrACS), a global best track data archive curated by NOAA dating back to 1842.

Updated: 2021-12-06